createdAt,value
2017-10-21T00:01:38.886Z,75.43
2017-10-21T00:04:14.250Z,75.38
2017-10-21T00:06:49.903Z,75.00
2017-10-21T00:09:24.479Z,75.29
2017-10-21T00:25:28.437Z,76.91
2017-10-21T00:28:03.145Z,77.15
2017-10-21T00:30:39.571Z,77.22
2017-10-21T00:33:14.497Z,77.26
2017-10-21T00:35:51.549Z,77.16
2017-10-21T00:38:26.624Z,77.22
2017-10-21T00:41:03.064Z,77.13
2017-10-21T00:43:38.466Z,76.56
2017-10-21T00:46:15.147Z,75.44
2017-10-21T00:48:50.331Z,74.23
2017-10-21T00:51:26.626Z,73.17
2017-10-21T00:54:02.365Z,71.94
2017-10-21T00:56:40.187Z,70.70
2017-10-21T00:59:14.905Z,69.46
2017-10-21T01:01:53.741Z,68.67
2017-10-21T01:04:28.804Z,67.76
2017-10-21T01:07:05.369Z,67.66
2017-10-21T01:09:40.834Z,67.27
2017-10-21T01:12:17.286Z,67.49
2017-10-21T01:14:52.718Z,66.87
2017-10-21T01:17:28.328Z,67.02
2017-10-21T01:20:03.507Z,66.96
2017-10-21T01:22:39.739Z,66.99
2017-10-21T01:25:14.602Z,67.23
2017-10-21T01:27:49.991Z,67.55
2017-10-21T01:30:25.562Z,67.32
2017-10-21T01:33:01.267Z,67.44
2017-10-21T01:35:36.445Z,68.36
2017-10-21T01:38:11.077Z,68.88
2017-10-21T01:40:45.666Z,69.41
2017-10-21T01:43:21.421Z,69.82
2017-10-21T01:45:55.987Z,70.25
2017-10-21T01:48:32.608Z,71.42
2017-10-21T01:51:07.337Z,72.12
2017-10-21T01:56:45.546Z,71.95
2017-10-21T01:59:21.231Z,72.32
2017-10-21T02:01:56.030Z,72.67
2017-10-21T02:04:31.409Z,72.99
2017-10-21T02:07:08.661Z,73.27
2017-10-21T02:09:43.745Z,73.01
2017-10-21T02:12:19.299Z,73.03
2017-10-21T02:14:54.072Z,73.17
2017-10-21T02:17:30.007Z,73.35
2017-10-21T02:20:07.404Z,73.77
2017-10-21T02:22:43.363Z,73.96
2017-10-21T02:25:18.111Z,73.96
2017-10-21T02:27:54.416Z,73.41
2017-10-21T02:30:30.686Z,72.54
2017-10-21T02:33:05.572Z,71.94
2017-10-21T02:38:25.958Z,69.82
2017-10-21T02:41:01.466Z,68.76
2017-10-21T02:43:36.756Z,68.00
2017-10-21T02:46:12.087Z,67.79
2017-10-21T02:48:47.623Z,66.18
2017-10-21T02:51:22.333Z,65.87
2017-10-21T02:53:57.615Z,64.83
2017-10-21T02:56:33.028Z,64.47
2017-10-21T02:59:08.682Z,63.83
2017-10-21T03:01:43.470Z,63.38
2017-10-21T03:04:19.773Z,62.97
2017-10-21T03:06:54.430Z,62.77
2017-10-21T03:09:30.206Z,62.35
2017-10-21T03:12:04.766Z,62.06
2017-10-21T03:14:39.490Z,61.80
2017-10-21T03:17:14.703Z,61.51
2017-10-21T03:19:49.504Z,61.18
2017-10-21T03:22:24.853Z,61.02
2017-10-21T03:25:03.776Z,60.80
2017-10-21T03:27:39.211Z,60.69
2017-10-21T03:30:14.041Z,60.68
2017-10-21T03:32:49.466Z,60.63
2017-10-21T03:35:25.146Z,60.23
2017-10-21T03:38:00.582Z,60.08
2017-10-21T03:40:36.042Z,60.12
2017-10-21T03:43:10.528Z,59.90
2017-10-21T03:45:46.182Z,59.85
2017-10-21T03:48:20.874Z,59.67
2017-10-21T03:50:56.429Z,59.48
2017-10-21T03:53:45.182Z,59.34
2017-10-21T03:56:20.517Z,59.11
2017-10-21T03:58:56.068Z,58.65
2017-10-21T04:01:31.473Z,58.62
2017-10-21T04:04:06.993Z,58.13
2017-10-21T04:06:43.299Z,58.06
2017-10-21T04:09:18.716Z,57.58
2017-10-21T04:11:55.018Z,57.65
2017-10-21T04:14:29.538Z,57.03
2017-10-21T04:17:05.019Z,57.34
2017-10-21T04:19:40.295Z,57.18
2017-10-21T04:22:15.864Z,57.25
2017-10-21T04:24:51.393Z,57.36
2017-10-21T04:27:26.724Z,57.32
2017-10-21T04:30:02.171Z,57.35
2017-10-21T04:32:37.717Z,57.32
2017-10-21T04:35:04.507Z,57.39
2017-10-21T04:37:40.937Z,57.36
2017-10-21T04:40:16.127Z,57.29
2017-10-21T04:42:52.523Z,57.31
2017-10-21T04:45:27.512Z,57.19
2017-10-21T04:48:03.039Z,57.31
2017-10-21T04:50:37.743Z,56.96
2017-10-21T04:53:18.374Z,56.78
2017-10-21T04:55:53.414Z,56.83
2017-10-21T04:58:29.463Z,56.42
2017-10-21T05:01:04.807Z,56.60
2017-10-21T05:03:39.653Z,56.54
2017-10-21T05:06:14.526Z,56.79
2017-10-21T05:08:42.704Z,62.60
2017-10-21T05:11:09.575Z,63.03
2017-10-21T05:13:46.197Z,63.06
2017-10-21T05:16:20.725Z,60.55
2017-10-21T05:18:56.529Z,62.77
2017-10-21T05:21:31.813Z,63.71
2017-10-21T05:24:06.577Z,62.49
2017-10-21T05:26:41.953Z,61.54
2017-10-21T05:29:16.745Z,63.59
2017-10-21T05:31:51.225Z,64.31
2017-10-21T05:34:26.832Z,64.65
2017-10-21T05:36:53.472Z,63.74
2017-10-21T05:39:20.187Z,63.16
2017-10-21T05:41:56.559Z,63.95
2017-10-21T05:44:31.184Z,64.50
2017-10-21T05:47:06.865Z,63.76
2017-10-21T05:49:42.342Z,63.77
2017-10-21T05:52:20.180Z,64.50
2017-10-21T05:54:47.099Z,64.53
2017-10-21T05:57:22.350Z,64.91
2017-10-21T05:59:57.545Z,64.64
2017-10-21T06:02:32.967Z,64.28
2017-10-21T06:05:07.848Z,63.96
2017-10-21T06:07:43.107Z,65.96
2017-10-21T06:10:17.774Z,66.28
2017-10-21T06:12:52.981Z,66.65
2017-10-21T06:15:27.818Z,66.81
2017-10-21T06:18:03.679Z,66.70
2017-10-21T06:20:38.713Z,67.12
2017-10-21T06:23:14.190Z,66.22
2017-10-21T06:25:49.458Z,66.47
2017-10-21T06:28:24.834Z,67.01
2017-10-21T06:31:00.200Z,67.22
2017-10-21T06:33:36.578Z,67.53
2017-10-21T06:36:11.774Z,67.01
2017-10-21T06:38:46.525Z,66.72
2017-10-21T06:41:21.073Z,66.54
2017-10-21T06:43:57.643Z,66.21
2017-10-21T06:46:32.707Z,66.67
2017-10-21T06:49:02.207Z,66.94
2017-10-21T06:54:24.653Z,66.29
2017-10-21T06:56:55.572Z,65.90
2017-10-21T06:59:23.830Z,64.98
2017-10-21T07:07:38.086Z,64.56
2017-10-21T07:10:05.225Z,64.97
2017-10-21T07:12:36.325Z,64.83
2017-10-21T07:15:06.457Z,63.89
2017-10-21T07:21:13.628Z,63.15
2017-10-21T07:23:42.602Z,62.79
2017-10-21T07:26:11.020Z,63.18
2017-10-21T07:28:38.084Z,63.44
2017-10-21T07:31:06.355Z,64.43
2017-10-21T07:33:34.712Z,64.51
2017-10-21T07:36:08.432Z,64.66
2017-10-21T07:38:35.794Z,64.91
2017-10-21T07:41:03.170Z,64.34
2017-10-21T07:43:32.036Z,64.13
2017-10-21T07:45:59.449Z,63.31
2017-10-21T07:48:35.189Z,63.19
2017-10-21T07:51:03.152Z,62.32
2017-10-21T07:53:30.403Z,63.41
2017-10-21T07:56:05.009Z,63.99
2017-10-21T08:01:25.915Z,64.23
2017-10-21T08:03:52.843Z,64.01
2017-10-21T08:06:19.687Z,64.57
2017-10-21T08:08:49.053Z,64.55
2017-10-21T08:11:18.392Z,64.28
2017-10-21T08:13:45.855Z,65.14
2017-10-21T08:16:15.036Z,65.25
2017-10-21T08:21:57.345Z,64.58
2017-10-21T08:24:25.278Z,64.48
2017-10-21T08:30:02.243Z,64.61
2017-10-21T08:38:12.881Z,64.48
2017-10-21T08:40:40.608Z,64.17
2017-10-21T08:45:50.456Z,64.62
2017-10-21T08:48:17.724Z,64.41
2017-10-21T08:50:56.468Z,64.69
2017-10-21T08:53:23.812Z,64.59
2017-10-21T08:55:56.917Z,64.69
2017-10-21T08:58:24.278Z,64.31
2017-10-21T09:00:53.660Z,63.26
2017-10-21T09:03:23.976Z,62.74
2017-10-21T09:06:09.964Z,62.46
2017-10-21T09:08:38.911Z,62.12
2017-10-21T09:11:06.892Z,61.99
2017-10-21T09:13:53.462Z,61.76
2017-10-21T09:16:25.010Z,61.05
2017-10-21T09:33:03.906Z,61.66
2017-10-21T09:35:41.664Z,60.83
2017-10-21T09:38:16.667Z,60.88
2017-10-21T09:40:51.528Z,61.83
2017-10-21T09:43:27.027Z,61.85
2017-10-21T09:46:05.180Z,62.07
2017-10-21T09:48:40.241Z,62.28
2017-10-21T09:51:15.563Z,62.16
2017-10-21T09:53:50.853Z,61.96
2017-10-21T09:56:26.234Z,62.40
2017-10-21T09:59:01.468Z,61.98
2017-10-21T10:01:36.070Z,62.06
2017-10-21T10:04:12.868Z,61.84
2017-10-21T10:06:50.177Z,61.80
2017-10-21T10:09:25.280Z,62.47
2017-10-21T10:12:00.795Z,63.44
2017-10-21T10:14:35.824Z,65.23
2017-10-21T10:17:13.823Z,66.08
2017-10-21T10:19:49.378Z,66.37
2017-10-21T10:22:25.617Z,67.13
2017-10-21T10:25:02.589Z,66.91
2017-10-21T10:27:39.523Z,68.08
2017-10-21T10:30:15.181Z,68.72
2017-10-21T10:32:50.941Z,69.27
2017-10-21T10:35:26.206Z,68.74
2017-10-21T10:38:02.131Z,68.45
2017-10-21T10:40:37.522Z,68.62
2017-10-21T10:43:13.048Z,68.25
2017-10-21T10:45:48.192Z,67.97
2017-10-21T10:48:23.369Z,68.52
2017-10-21T10:50:58.036Z,68.09
2017-10-21T10:53:33.915Z,68.10
2017-10-21T10:56:09.011Z,67.75
2017-10-21T10:59:01.404Z,67.85
2017-10-21T11:05:07.153Z,68.24
2017-10-21T11:07:53.734Z,68.10
2017-10-21T11:33:59.414Z,67.90
2017-10-21T11:36:27.942Z,68.13
2017-10-21T11:38:54.791Z,68.64
2017-10-21T11:41:30.066Z,70.24
2017-10-21T11:44:04.810Z,70.30
2017-10-21T11:46:44.732Z,70.86
2017-10-21T11:49:19.764Z,70.89
2017-10-21T11:51:55.281Z,71.47
2017-10-21T11:54:25.395Z,72.33
2017-10-21T11:56:52.225Z,72.48
2017-10-21T11:59:31.662Z,72.55
2017-10-21T12:02:06.645Z,72.78
2017-10-21T12:04:42.309Z,73.13
2017-10-21T12:07:17.519Z,72.76
2017-10-21T12:09:52.576Z,72.49
2017-10-21T12:12:29.569Z,72.66
2017-10-21T12:15:05.190Z,73.42
2017-10-21T12:17:40.329Z,73.61
2017-10-21T12:20:17.274Z,73.70
2017-10-21T12:22:52.097Z,73.92
2017-10-21T12:25:29.586Z,73.92
2017-10-21T12:28:04.057Z,73.44
2017-10-21T12:30:42.937Z,73.17
2017-10-21T12:33:17.409Z,73.59
2017-10-21T12:35:54.097Z,73.83
2017-10-21T12:38:29.299Z,73.26
2017-10-21T12:41:05.726Z,73.39
2017-10-21T12:43:41.008Z,74.72
2017-10-21T12:46:24.616Z,74.25
2017-10-21T12:49:01.064Z,73.96
2017-10-21T12:51:42.851Z,74.52
2017-10-21T12:54:20.542Z,74.44
2017-10-21T12:56:55.827Z,74.41
2017-10-21T12:59:31.279Z,75.29
2017-10-21T13:02:06.098Z,74.95
2017-10-21T13:04:45.526Z,74.89
2017-10-21T13:07:20.393Z,75.07
2017-10-21T13:09:55.390Z,75.67
2017-10-21T13:12:36.844Z,75.46
2017-10-21T13:21:10.154Z,75.67
2017-10-21T13:23:44.740Z,75.77
2017-10-21T13:26:21.610Z,75.58
2017-10-21T13:28:56.605Z,75.10
2017-10-21T13:31:33.472Z,74.78
2017-10-21T13:34:08.209Z,75.52
2017-10-21T13:36:43.297Z,75.49
2017-10-21T13:39:09.933Z,76.00
2017-10-21T13:41:36.692Z,75.59
2017-10-21T13:44:13.577Z,75.67
2017-10-21T13:46:48.439Z,75.65
2017-10-21T13:49:24.300Z,75.66
2017-10-21T13:51:59.582Z,76.14
2017-10-21T13:54:35.202Z,77.20
2017-10-21T13:57:09.924Z,77.01
2017-10-21T13:59:45.854Z,77.27
2017-10-21T14:02:20.855Z,77.25
2017-10-21T14:04:55.855Z,77.36
2017-10-21T14:07:30.715Z,77.19
2017-10-21T14:10:06.198Z,77.45
2017-10-21T14:12:41.560Z,77.14
2017-10-21T14:15:20.080Z,76.94
2017-10-21T14:17:55.585Z,76.55
2017-10-21T14:20:31.303Z,76.92
2017-10-21T14:23:06.416Z,77.15
2017-10-21T14:25:41.229Z,77.77
2017-10-21T14:28:16.369Z,77.92
2017-10-21T14:30:51.391Z,77.51
2017-10-21T14:33:26.606Z,77.45
2017-10-21T14:36:01.457Z,78.11
2017-10-21T14:38:36.596Z,77.85
2017-10-21T14:41:11.495Z,77.66
2017-10-21T14:43:46.572Z,78.18
2017-10-21T14:46:22.982Z,77.97
2017-10-21T14:48:57.961Z,78.25
2017-10-21T14:51:33.044Z,77.91
2017-10-21T14:54:13.480Z,77.64
2017-10-21T14:56:42.636Z,77.10
2017-10-21T14:59:09.726Z,77.29
2017-10-21T15:01:45.389Z,77.38
2017-10-21T15:04:12.345Z,77.29
2017-10-21T15:06:47.624Z,77.33
2017-10-21T15:09:22.857Z,78.27
2017-10-21T15:11:51.011Z,78.02
2017-10-21T15:20:22.928Z,77.75
2017-10-21T15:40:29.906Z,77.85
2017-10-21T15:42:56.700Z,77.49
2017-10-21T15:45:24.357Z,77.42
2017-10-21T15:48:01.671Z,79.59
2017-10-21T15:50:36.694Z,80.30
2017-10-21T15:53:06.011Z,80.96
2017-10-21T15:55:40.703Z,80.84
2017-10-21T15:58:07.563Z,80.88
2017-10-21T16:00:36.377Z,80.42
2017-10-21T16:03:13.524Z,80.24
2017-10-21T16:05:40.171Z,80.49
2017-10-21T16:08:15.721Z,80.59
2017-10-21T16:10:57.184Z,80.55
2017-10-21T16:13:37.913Z,80.56
2017-10-21T16:16:13.984Z,80.48
2017-10-21T16:18:50.558Z,80.41
2017-10-21T16:21:30.450Z,79.81
2017-10-21T16:23:57.193Z,80.01
2017-10-21T16:26:24.018Z,79.80
2017-10-21T16:29:03.126Z,79.65
2017-10-21T16:31:43.642Z,79.73
2017-10-21T16:34:11.999Z,80.33
2017-10-21T16:36:46.692Z,80.38
2017-10-21T16:39:23.630Z,80.63
2017-10-21T16:41:59.374Z,80.37
2017-10-21T16:44:41.293Z,80.04
2017-10-21T16:47:18.783Z,79.93
2017-10-21T16:49:54.608Z,80.35
2017-10-21T16:52:29.329Z,80.51
2017-10-21T16:55:04.708Z,81.30
2017-10-21T16:57:39.385Z,81.11
2017-10-21T17:00:14.934Z,81.10
2017-10-21T17:02:49.657Z,80.80
2017-10-21T17:05:17.650Z,80.58
2017-10-21T17:07:52.595Z,80.54
2017-10-21T17:10:28.800Z,80.30
2017-10-21T17:13:06.070Z,80.19
2017-10-21T17:15:43.256Z,80.13
2017-10-21T17:18:09.946Z,79.74
2017-10-21T17:20:45.340Z,79.62
2017-10-21T17:23:20.086Z,79.56
2017-10-21T17:25:58.466Z,79.65
2017-10-21T17:31:08.391Z,79.70
2017-10-21T17:36:17.457Z,79.57
2017-10-21T17:38:52.783Z,79.52
2017-10-21T17:41:22.692Z,79.34
2017-10-21T17:43:57.925Z,79.21
2017-10-21T17:46:39.633Z,79.47
2017-10-21T17:49:06.364Z,79.42
2017-10-21T17:51:42.540Z,79.44
2017-10-21T17:54:17.267Z,79.28
2017-10-21T17:56:54.458Z,79.49
2017-10-21T17:59:29.317Z,79.28
2017-10-21T18:02:08.916Z,79.43
2017-10-21T18:04:47.600Z,79.85
2017-10-21T18:07:24.268Z,80.02
2017-10-21T18:09:59.221Z,80.00
2017-10-21T18:12:33.895Z,79.94
2017-10-21T18:15:09.334Z,79.82
2017-10-21T18:17:45.560Z,79.87
2017-10-21T18:20:12.350Z,80.25
2017-10-21T18:22:39.087Z,80.23
2017-10-21T18:25:13.645Z,80.43
2017-10-21T18:27:40.921Z,80.27
2017-10-21T18:30:07.789Z,80.37
2017-10-21T18:32:43.236Z,80.54
2017-10-21T18:35:18.641Z,80.62
2017-10-21T18:37:53.813Z,80.52
2017-10-21T18:40:29.553Z,80.42
2017-10-21T18:43:04.416Z,80.58
2017-10-21T18:45:40.601Z,80.51
2017-10-21T18:48:15.216Z,80.64
2017-10-21T18:50:41.938Z,80.63
2017-10-21T18:53:08.640Z,80.56
2017-10-21T18:55:43.623Z,80.54
2017-10-21T18:58:18.738Z,80.51
2017-10-21T19:00:53.735Z,80.63
2017-10-21T19:03:28.297Z,80.69
2017-10-21T19:06:04.978Z,80.64
2017-10-21T19:08:39.538Z,80.66
2017-10-21T19:11:17.695Z,80.71
2017-10-21T19:13:56.680Z,80.67
2017-10-21T19:16:31.672Z,80.93
2017-10-21T19:19:07.001Z,80.89
2017-10-21T19:21:41.706Z,80.80
2017-10-21T19:24:28.903Z,81.09
2017-10-21T19:26:56.651Z,81.12
2017-10-21T19:29:31.575Z,81.22
2017-10-21T19:32:10.821Z,81.20
2017-10-21T19:34:46.201Z,81.05
2017-10-21T19:37:21.434Z,81.44
2017-10-21T19:39:56.773Z,81.63
2017-10-21T19:42:25.078Z,81.46
2017-10-21T19:45:00.115Z,81.56
2017-10-21T19:47:26.831Z,81.59
2017-10-21T19:50:01.458Z,81.42
2017-10-21T19:52:36.826Z,81.07
2017-10-21T19:55:11.879Z,81.60
2017-10-21T19:57:47.986Z,82.05
2017-10-21T20:00:22.950Z,81.94
2017-10-21T20:02:58.887Z,81.75
2017-10-21T20:05:33.735Z,81.82
2017-10-21T20:08:04.182Z,82.05
2017-10-21T20:10:39.134Z,82.22
2017-10-21T20:15:59.396Z,82.71
2017-10-21T20:18:35.745Z,83.00
2017-10-21T20:21:16.824Z,83.35
2017-10-21T20:23:53.732Z,83.22
2017-10-21T20:26:30.301Z,83.41
2017-10-21T20:29:05.191Z,83.49
2017-10-21T20:31:41.824Z,83.72
2017-10-21T20:34:10.270Z,83.93
2017-10-21T20:36:36.943Z,84.26
2017-10-21T20:39:03.670Z,84.65
2017-10-21T20:41:30.670Z,84.92
2017-10-21T20:44:12.019Z,85.48
2017-10-21T20:46:58.628Z,85.81
2017-10-21T20:49:34.285Z,85.55
2017-10-21T20:52:16.315Z,85.36
2017-10-21T20:54:52.321Z,85.77
2017-10-21T20:57:29.223Z,85.91
2017-10-21T21:00:09.588Z,86.45
2017-10-21T21:02:44.810Z,86.21
2017-10-21T21:05:11.543Z,85.81
2017-10-21T21:07:38.308Z,85.66
2017-10-21T21:10:14.564Z,85.42
2017-10-21T21:12:49.701Z,85.36
2017-10-21T21:15:17.348Z,85.30
2017-10-21T21:17:54.181Z,85.45
2017-10-21T21:44:03.166Z,85.52
2017-10-21T21:46:41.871Z,85.69
2017-10-21T21:49:19.070Z,85.61
2017-10-21T21:52:10.435Z,85.58
2017-10-21T21:54:45.634Z,85.25
2017-10-21T21:57:20.230Z,85.35
2017-10-21T21:59:57.624Z,85.38
2017-10-21T22:02:37.208Z,85.26
2017-10-21T22:05:11.933Z,85.30
2017-10-21T22:07:48.116Z,85.39
2017-10-21T22:10:24.532Z,84.92
2017-10-21T22:13:00.048Z,83.53
2017-10-21T22:15:34.732Z,83.68
2017-10-21T22:18:12.137Z,82.73
2017-10-21T22:20:48.424Z,81.60
2017-10-21T22:23:25.089Z,81.08
2017-10-21T22:26:01.394Z,80.75
2017-10-21T22:28:42.027Z,79.52
2017-10-21T22:31:16.757Z,79.69
2017-10-21T22:33:52.247Z,79.34
2017-10-21T22:36:26.412Z,78.41
2017-10-21T22:39:03.031Z,78.04
2017-10-21T22:41:40.113Z,77.90
2017-10-21T22:44:14.768Z,78.28
2017-10-21T22:46:51.857Z,78.45
2017-10-21T22:49:27.109Z,78.20
2017-10-21T22:52:02.559Z,77.87
2017-10-21T22:54:44.221Z,77.28
2017-10-21T22:57:20.206Z,76.39
2017-10-21T22:59:55.847Z,75.37
2017-10-21T23:02:33.359Z,73.45
2017-10-21T23:05:14.410Z,70.96
2017-10-21T23:07:52.142Z,69.98
2017-10-21T23:10:33.386Z,69.61
2017-10-21T23:13:10.298Z,69.16
2017-10-21T23:15:47.046Z,68.27
2017-10-21T23:18:28.128Z,66.84
2017-10-21T23:21:02.970Z,65.46
2017-10-21T23:23:38.448Z,63.97
2017-10-21T23:26:18.785Z,62.21
2017-10-21T23:28:58.090Z,61.15
2017-10-21T23:31:33.287Z,60.31
2017-10-21T23:34:11.661Z,60.52
2017-10-21T23:36:46.396Z,59.31
2017-10-21T23:39:22.461Z,59.29
2017-10-21T23:41:49.202Z,59.08
2017-10-21T23:44:25.269Z,58.21
2017-10-21T23:46:59.849Z,58.26
2017-10-21T23:49:34.622Z,57.66
2017-10-21T23:52:09.225Z,58.29
2017-10-21T23:54:44.769Z,58.43
2017-10-21T23:57:20.406Z,58.31
2017-10-21T23:59:54.975Z,58.28
